AirNav   Air Wisconsin pilot careers
 
 1030 users online  

09A Butler-Choctaw County Airport
Butler, Alabama, USA

GOING TO BUTLER?


FAA INFORMATION EFFECTIVE 18 JULY 2019

Location

FAA Identifier: 09A
Lat/Long: 32-07-09.5000N / 088-07-38.9000W
32-07.158333N / 088-07.648333W
32.1193056 / -88.1274722
(estimated)
Elevation: 133.7 ft. / 40.8 m (surveyed)
Variation: 03W (2020)
From city: 5 miles NE of BUTLER, AL
Time zone: UTC -5 (UTC -6 during Standard Time)
Zip code: 36904

Airport Operations

Airport use: Open to the public
Activation date: 04/1969
Control tower: no
ARTCC: MEMPHIS CENTER
FSS: ANNISTON FLIGHT SERVICE STATION
NOTAMs facility: ANB (NOTAM-D service available)
Attendance: UNATNDD
Wind indicator: lighted
Segmented circle: yes
Lights: ACTVT MIRL RY 12/30 & PAPI RY 30 - CTAF.
Beacon: white-green (lighted land airport)
Operates sunset to sunrise.

Airport Communications

CTAF/UNICOM: 122.8
MERIDIAN APPROACH: 119.2
MERIDIAN DEPARTURE: 119.2
  • APCH/DEP SVC PRVDD BY ATLANTA ARTCC ON FREQS 120.55/270.25 (MONTGOMERY RCAG) WHEN MERIDIAN APCH CTL CLSD.

Nearby radio navigation aids

VOR radial/distance  VOR name  Freq  Var
EWAr127/22.4KEWANEE VORTAC113.8004E
MEIr109/37.7MERIDIAN VORTAC117.0005E

Airport Services

Parking: tiedowns
Airframe service: NONE
Powerplant service: NONE
Bottled oxygen: NONE
Bulk oxygen: NONE

Runway Information

Runway 12/30

Dimensions: 4082 x 80 ft. / 1244 x 24 m
Surface: asphalt, in poor condition
RWY POOR COND DUE TO CRACKING WITH VEGETATION AND RAVELING.
Weight bearing capacity: 
Single wheel: 15.0
Runway edge lights: medium intensity
RUNWAY 12  RUNWAY 30
Latitude: 32-07.304368N32-07.012883N
Longitude: 088-08.004210W088-07.291267W
Elevation: 116.3 ft.133.7 ft.
Traffic pattern: leftleft
Runway heading: 119 magnetic, 116 true299 magnetic, 296 true
Displaced threshold: 169 ft.444 ft.
Markings: nonprecision, in fair conditionnonprecision, in fair condition
Visual slope indicator: 2-light PAPI on left (3.00 degrees glide path)
PAPI UNUSBL BYD 8 DEGS LEFT OF CNTRLN.
2-light PAPI on left (3.00 degrees glide path)
PAPI RY 30 OTS INDEFLY.
Touchdown point: yes, no lightsyes, no lights
Obstructions: 9 ft. trees, 217 ft. from runway, 126 ft. right of centerline, 1:1 slope to clear
TREE 186 FEET FROM DISPLACED THRESHOLD. 20:1 SLOPE FROM DISPLACED THRESHOLD.
42 ft. trees, 880 ft. from runway, 61 ft. left of centerline, 16:1 slope to clear

Airport Ownership and Management from official FAA records

Ownership: Publicly-owned
Owner: CHOCTAW COUNTY
117 SOUTH MULBERRY/SUITE 9
BUTLER, AL 36904
Phone 205-459-2417
Manager: TYLER DAVIDSON
117 SOUTH MULBERRY, SUITE 12
BUTLER, AL 36904
Phone (205) 459-2153

Airport Operational Statistics

Aircraft operations: avg 37/week *
81% transient general aviation
19% local general aviation
* for 12-month period ending 11 October 2019

Additional Remarks

FOR CD CTC ATLANTA ARTCC AT 770-210-7692.

Instrument Procedures

NOTE: All procedures below are presented as PDF files. If you need a reader for these files, you should download the free Adobe Reader.

NOT FOR NAVIGATION. Please procure official charts for flight.
FAA instrument procedures published for use from 18 July 2019 at 0901Z to 16 August 2019 at 0900Z.

 
IAPs - Instrument Approach Procedures
RNAV (GPS) RWY 12   download
RNAV (GPS) RWY 30   download
NOTE: Special Take-Off Minimums/Departure Procedures apply   download (291KB)

Other nearby airports with instrument procedures:

KDYA - Demopolis Regional Airport (22 nm NE)
KNMM - Meridian Naval Air Station (Mc Cain Field) (34 nm NW)
KMEI - Key Field Airport (34 nm W)
5R1 - Roy Wilcox Airport (40 nm S)
4R3 - Jackson Municipal Airport (41 nm S)
 
Loc | Ops | Rwys | IFR | FBO | Links
Com | Nav | Svcs | Stats | Notes
Area around 09A (Butler-Choctaw County Airport)
 
Road maps at: MapQuest Bing Google
 
Aerial photo
WARNING: Photo may not be current or correct
Aerial photo of 09A (Butler-Choctaw County Airport)
Photo taken 07-Feb-2008

Do you have a better or more recent aerial photo of Butler-Choctaw County Airport that you would like to share? If so, please send us your photo.

 
Sectional chart

 
Airport distance calculator
Flying to Butler-Choctaw County Airport? Find the distance to fly.

From to 09A

Sunrise and sunset
Times for 20-Jul-2019
 Local
(UTC-5)
 Zulu
(UTC)
Morning civil twilight05:3310:33
Sunrise06:0111:01
Sunset19:5700:57
Evening civil twilight20:2401:24

Current date and time
Zulu (UTC)  20-Jul-2019 23:11:29
Local (UTC-5)  20-Jul-2019 18:11:29
 
METAR
KDYA 
22nm NE 
202255Z AUTO 00000KT 10SM CLR 27/23 A3001 RMK AO2 T02660228
KNMM 
33nm NW 
202256Z AUTO 00000KT 10SM FEW070 FEW090 SCT110 26/24 A3001 RMK AO2 SLP169 T02560239 PNO $
KMEI 
34nm W 
202258Z 16004KT 10SM SCT015 28/23 A3001 RMK AO2 SLP159 T02830233
KA08 
44nm NE 
202255Z AUTO 16003KT 10SM CLR 28/24 A3000 RMK AO2 T02750240
TAF
KNMM 
33nm NW 
2015/2115 VRB03KT 9999 VCTS BKN009CB SCT025 BKN045 QNH2998INS TEMPO 2015/2021 VRB15G25KT 1200 +TSRA BKN003CB OVC055 FM210200 VRB03KT 9999 SCT120 SCT320 QNH3002INS AUTOMATED SENSOR METWATCH 2015 TIL 2121 T28/2018Z T22/2106Z FN00210
KMEI 
34nm W 
202015Z 2020/2118 18005KT P6SM -RA SCT030 BKN050 OVC120 FM210100 21002KT P6SM BKN120 FM210800 00000KT P6SM OVC025 FM211100 00000KT 6SM BR OVC007 FM211400 22003KT P6SM OVC015 FM211700 20005KT P6SM SCT025 BKN040
NOTAMs
Click for the latest NOTAMs
NOTAMs are issued by the DoD/FAA and will open in a separate window not controlled by AirNav.

 

 
 

Would you like to see your business listed on this page?

 If your business provides an interesting product or service to pilots, flight crews, aircraft, or users of the Butler-Choctaw County Airport, you should consider listing it here.  To start the listing process, click on the button below
 
Add a business
 

Other Pages about Butler-Choctaw County Airport

Update a link
 
Copyright © AirNav, LLC. All rights reserved. Privacy Policy  Contact